Terminal Aerodrome Forecast
Issued by NWS Sioux Falls, SD

Home | Current Version | Previous Version | Graphics & Text | Print | Product List | Glossary On
Versions: 1 2 3 4 5 6 7 8 9 10 11 12
000
FTUS43 KFSD 180534
TAFFSD
TAF
KFSD 180534Z 1806/1906 17008KT P6SM SKC
     FM180800 17007KT P6SM FEW250 WS014/22035KT
     FM181200 19006KT P6SM FEW250
     FM181800 33012G16KT P6SM SCT250
     FM190100 28004KT P6SM SKC=

USA.gov is the U.S. government's official web portal to all federal, state and local government web resources and services.